sensor_id;sensor_type;location;lat;lon;timestamp;temperature;humidity
30150;DHT22;16962;48.646;9.026;2024-01-10T00:01:05;-6.90;99.90
30150;DHT22;16962;48.646;9.026;2024-01-10T00:03:54;-6.80;99.90
30150;DHT22;16962;48.646;9.026;2024-01-10T00:06:45;-6.80;99.90
30150;DHT22;16962;48.646;9.026;2024-01-10T00:09:33;-6.80;99.90
30150;DHT22;16962;48.646;9.026;2024-01-10T00:12:23;-6.80;1.00
30150;DHT22;16962;48.646;9.026;2024-01-10T00:15:11;-6.80;38.80
30150;DHT22;16962;48.646;9.026;2024-01-10T00:18:03;-6.70;1.00
30150;DHT22;16962;48.646;9.026;2024-01-10T00:20:51;-6.70;1.00
30150;DHT22;16962;48.646;9.026;2024-01-10T00:23:41;-6.70;1.00
30150;DHT22;16962;48.646;9.026;2024-01-10T00:26:31;-6.70;17.90
30150;DHT22;16962;48.646;9.026;2024-01-10T00:29:22;-6.70;99.90
30150;DHT22;16962;48.646;9.026;2024-01-10T00:32:10;-6.60;99.90
30150;DHT22;16962;48.646;9.026;2024-01-10T00:34:58;-6.60;99.90
30150;DHT22;16962;48.646;9.026;2024-01-10T00:37:49;-6.60;99.90
30150;DHT22;16962;48.646;9.026;2024-01-10T00:40:36;-6.50;99.90
30150;DHT22;16962;48.646;9.026;2024-01-10T00:43:25;-6.50;99.90
30150;DHT22;16962;48.646;9.026;2024-01-10T00:46:14;-6.50;99.90
30150;DHT22;16962;48.646;9.026;2024-01-10T00:49:02;-6.50;99.90
30150;DHT22;16962;48.646;9.026;2024-01-10T00:51:51;-6.40;99.90
30150;DHT22;16962;48.646;9.026;2024-01-10T00:54:38;-6.40;99.90
30150;DHT22;16962;48.646;9.026;2024-01-10T00:57:27;-6.40;99.90
30150;DHT22;16962;48.646;9.026;2024-01-10T01:00:15;-6.30;99.90
30150;DHT22;16962;48.646;9.026;2024-01-10T01:03:02;-6.30;99.90
30150;DHT22;16962;48.646;9.026;2024-01-10T01:05:50;-6.30;99.90
30150;DHT22;16962;48.646;9.026;2024-01-10T01:08:39;-6.30;99.90
30150;DHT22;16962;48.646;9.026;2024-01-10T01:11:27;-6.20;8.60
30150;DHT22;16962;48.646;9.026;2024-01-10T01:14:14;-6.10;99.90
30150;DHT22;16962;48.646;9.026;2024-01-10T01:17:03;-6.00;1.00
30150;DHT22;16962;48.646;9.026;2024-01-10T01:19:51;-5.90;1.00
30150;DHT22;16962;48.646;9.026;2024-01-10T01:22:40;-5.80;99.90
30150;DHT22;16962;48.646;9.026;2024-01-10T01:25:28;-5.80;45.20
30150;DHT22;16962;48.646;9.026;2024-01-10T01:28:16;-5.80;1.00
30150;DHT22;16962;48.646;9.026;2024-01-10T01:31:04;-5.70;1.00
30150;DHT22;16962;48.646;9.026;2024-01-10T01:33:51;-5.70;1.00
30150;DHT22;16962;48.646;9.026;2024-01-10T01:36:39;-5.70;1.00
30150;DHT22;16962;48.646;9.026;2024-01-10T01:39:27;-5.70;1.00
30150;DHT22;16962;48.646;9.026;2024-01-10T01:42:16;-5.60;1.00
30150;DHT22;16962;48.646;9.026;2024-01-10T01:45:04;-5.50;99.90
30150;DHT22;16962;48.646;9.026;2024-01-10T01:47:52;-5.50;99.90
30150;DHT22;16962;48.646;9.026;2024-01-10T01:50:40;-5.50;99.90
30150;DHT22;16962;48.646;9.026;2024-01-10T01:53:30;-5.50;99.90
30150;DHT22;16962;48.646;9.026;2024-01-10T01:56:17;-5.50;53.30
30150;DHT22;16962;48.646;9.026;2024-01-10T01:59:05;-5.50;7.30
30150;DHT22;16962;48.646;9.026;2024-01-10T02:01:54;-5.50;16.20
30150;DHT22;16962;48.646;9.026;2024-01-10T02:04:43;-5.50;1.00
30150;DHT22;16962;48.646;9.026;2024-01-10T02:07:31;-5.50;1.00
30150;DHT22;16962;48.646;9.026;2024-01-10T02:10:19;-5.50;44.80
30150;DHT22;16962;48.646;9.026;2024-01-10T02:13:07;-5.50;99.90
30150;DHT22;16962;48.646;9.026;2024-01-10T02:15:57;-5.60;99.90
30150;DHT22;16962;48.646;9.026;2024-01-10T02:18:44;-5.60;99.90
30150;DHT22;16962;48.646;9.026;2024-01-10T02:21:33;-5.60;99.90
30150;DHT22;16962;48.646;9.026;2024-01-10T02:24:21;-5.50;99.90
30150;DHT22;16962;48.646;9.026;2024-01-10T02:27:09;-5.50;1.00
30150;DHT22;16962;48.646;9.026;2024-01-10T02:29:59;-5.40;1.00
30150;DHT22;16962;48.646;9.026;2024-01-10T02:32:49;-5.40;1.00
30150;DHT22;16962;48.646;9.026;2024-01-10T02:35:36;-5.40;1.00
30150;DHT22;16962;48.646;9.026;2024-01-10T02:38:24;-5.40;99.90
30150;DHT22;16962;48.646;9.026;2024-01-10T02:41:12;-5.40;99.90
30150;DHT22;16962;48.646;9.026;2024-01-10T02:43:59;-5.40;99.90
30150;DHT22;16962;48.646;9.026;2024-01-10T02:46:48;-5.40;1.00
30150;DHT22;16962;48.646;9.026;2024-01-10T02:49:35;-5.40;99.90
30150;DHT22;16962;48.646;9.026;2024-01-10T02:52:23;-5.30;99.90
30150;DHT22;16962;48.646;9.026;2024-01-10T02:55:11;-5.30;99.90
30150;DHT22;16962;48.646;9.026;2024-01-10T02:57:58;-5.30;99.90
30150;DHT22;16962;48.646;9.026;2024-01-10T03:00:48;-5.20;99.90
30150;DHT22;16962;48.646;9.026;2024-01-10T03:03:35;-5.20;99.90
30150;DHT22;16962;48.646;9.026;2024-01-10T03:06:23;-5.20;99.90
30150;DHT22;16962;48.646;9.026;2024-01-10T03:09:11;-5.20;99.90
30150;DHT22;16962;48.646;9.026;2024-01-10T03:12:00;-5.20;99.90
30150;DHT22;16962;48.646;9.026;2024-01-10T03:14:49;-5.20;99.90
30150;DHT22;16962;48.646;9.026;2024-01-10T03:17:36;-5.20;99.90
30150;DHT22;16962;48.646;9.026;2024-01-10T03:20:29;-5.20;99.90
30150;DHT22;16962;48.646;9.026;2024-01-10T03:23:18;-5.20;99.90
30150;DHT22;16962;48.646;9.026;2024-01-10T03:26:06;-5.20;99.90
30150;DHT22;16962;48.646;9.026;2024-01-10T03:28:55;-5.30;99.90
30150;DHT22;16962;48.646;9.026;2024-01-10T03:31:43;-5.30;99.90
30150;DHT22;16962;48.646;9.026;2024-01-10T03:34:32;-5.40;99.90
30150;DHT22;16962;48.646;9.026;2024-01-10T03:37:19;-5.40;99.90
30150;DHT22;16962;48.646;9.026;2024-01-10T03:40:07;-5.50;99.90
30150;DHT22;16962;48.646;9.026;2024-01-10T03:42:54;-5.60;99.90
30150;DHT22;16962;48.646;9.026;2024-01-10T03:45:42;-5.70;99.90
30150;DHT22;16962;48.646;9.026;2024-01-10T03:48:31;-5.70;99.90
30150;DHT22;16962;48.646;9.026;2024-01-10T03:51:19;-5.80;99.90
30150;DHT22;16962;48.646;9.026;2024-01-10T03:54:07;-5.80;99.90
30150;DHT22;16962;48.646;9.026;2024-01-10T03:56:55;-5.80;99.90
30150;DHT22;16962;48.646;9.026;2024-01-10T03:59:43;-5.80;99.90
30150;DHT22;16962;48.646;9.026;2024-01-10T04:02:30;-5.80;99.90
30150;DHT22;16962;48.646;9.026;2024-01-10T04:05:17;-5.70;99.90
30150;DHT22;16962;48.646;9.026;2024-01-10T04:08:06;-5.70;1.00
30150;DHT22;16962;48.646;9.026;2024-01-10T04:10:54;-5.60;1.00
30150;DHT22;16962;48.646;9.026;2024-01-10T04:13:43;-5.60;1.00
30150;DHT22;16962;48.646;9.026;2024-01-10T04:16:34;-5.60;1.00
30150;DHT22;16962;48.646;9.026;2024-01-10T04:19:24;-5.50;1.00
30150;DHT22;16962;48.646;9.026;2024-01-10T04:22:11;-5.50;99.90
30150;DHT22;16962;48.646;9.026;2024-01-10T04:25:00;-5.50;99.90
30150;DHT22;16962;48.646;9.026;2024-01-10T04:27:49;-5.50;99.90
30150;DHT22;16962;48.646;9.026;2024-01-10T04:30:38;-5.50;99.90
30150;DHT22;16962;48.646;9.026;2024-01-10T04:33:26;-5.50;99.90
30150;DHT22;16962;48.646;9.026;2024-01-10T04:36:13;-5.50;99.90
30150;DHT22;16962;48.646;9.026;2024-01-10T04:39:01;-5.60;99.90
30150;DHT22;16962;48.646;9.026;2024-01-10T04:41:49;-5.60;99.90
30150;DHT22;16962;48.646;9.026;2024-01-10T04:44:37;-5.60;99.90
30150;DHT22;16962;48.646;9.026;2024-01-10T04:47:26;-5.70;99.90
30150;DHT22;16962;48.646;9.026;2024-01-10T04:50:13;-5.70;99.90
30150;DHT22;16962;48.646;9.026;2024-01-10T04:53:01;-5.80;1.00
30150;DHT22;16962;48.646;9.026;2024-01-10T04:55:50;-5.80;1.00
30150;DHT22;16962;48.646;9.026;2024-01-10T04:58:38;-5.70;1.00
30150;DHT22;16962;48.646;9.026;2024-01-10T05:01:26;-5.80;1.00
30150;DHT22;16962;48.646;9.026;2024-01-10T05:04:15;-5.80;1.00
30150;DHT22;16962;48.646;9.026;2024-01-10T05:07:02;-5.70;1.00
30150;DHT22;16962;48.646;9.026;2024-01-10T05:09:50;-5.80;1.00
30150;DHT22;16962;48.646;9.026;2024-01-10T05:12:39;-5.80;1.00
30150;DHT22;16962;48.646;9.026;2024-01-10T05:15:29;-5.80;1.00
30150;DHT22;16962;48.646;9.026;2024-01-10T05:18:17;-5.90;1.00
30150;DHT22;16962;48.646;9.026;2024-01-10T05:21:06;-5.90;1.00
30150;DHT22;16962;48.646;9.026;2024-01-10T05:23:54;-6.00;1.00
30150;DHT22;16962;48.646;9.026;2024-01-10T05:26:41;-6.10;1.00
30150;DHT22;16962;48.646;9.026;2024-01-10T05:29:29;-6.20;1.00
30150;DHT22;16962;48.646;9.026;2024-01-10T05:32:18;-6.30;1.00
30150;DHT22;16962;48.646;9.026;2024-01-10T05:35:08;-6.30;1.00
30150;DHT22;16962;48.646;9.026;2024-01-10T05:37:58;-6.30;21.00
30150;DHT22;16962;48.646;9.026;2024-01-10T05:40:46;-6.30;99.90
30150;DHT22;16962;48.646;9.026;2024-01-10T05:43:37;-6.30;99.90
30150;DHT22;16962;48.646;9.026;2024-01-10T05:46:25;-6.20;99.90
30150;DHT22;16962;48.646;9.026;2024-01-10T05:49:16;-6.30;99.90
30150;DHT22;16962;48.646;9.026;2024-01-10T05:52:04;-6.40;99.90
30150;DHT22;16962;48.646;9.026;2024-01-10T05:54:53;-6.60;1.00
30150;DHT22;16962;48.646;9.026;2024-01-10T05:57:42;-6.60;99.90
30150;DHT22;16962;48.646;9.026;2024-01-10T06:00:37;-6.70;1.00
30150;DHT22;16962;48.646;9.026;2024-01-10T06:03:25;-6.70;99.90
30150;DHT22;16962;48.646;9.026;2024-01-10T06:06:12;-6.80;99.90
30150;DHT22;16962;48.646;9.026;2024-01-10T06:09:02;-7.00;99.90
30150;DHT22;16962;48.646;9.026;2024-01-10T06:11:50;-7.10;29.60
30150;DHT22;16962;48.646;9.026;2024-01-10T06:14:39;-7.10;1.00
30150;DHT22;16962;48.646;9.026;2024-01-10T06:17:28;-7.20;99.90
30150;DHT22;16962;48.646;9.026;2024-01-10T06:20:17;-7.20;1.00
30150;DHT22;16962;48.646;9.026;2024-01-10T06:23:07;-7.30;99.90
30150;DHT22;16962;48.646;9.026;2024-01-10T06:25:55;-7.30;99.90
30150;DHT22;16962;48.646;9.026;2024-01-10T06:28:43;-7.30;99.90
30150;DHT22;16962;48.646;9.026;2024-01-10T06:31:31;-7.40;99.90
30150;DHT22;16962;48.646;9.026;2024-01-10T06:34:22;-7.40;99.90
30150;DHT22;16962;48.646;9.026;2024-01-10T06:37:10;-7.50;1.00
30150;DHT22;16962;48.646;9.026;2024-01-10T06:40:01;-7.50;99.90
30150;DHT22;16962;48.646;9.026;2024-01-10T06:42:55;-7.50;99.90
30150;DHT22;16962;48.646;9.026;2024-01-10T06:45:42;-7.50;1.00
30150;DHT22;16962;48.646;9.026;2024-01-10T06:48:33;-7.60;1.00
30150;DHT22;16962;48.646;9.026;2024-01-10T06:51:21;-7.70;79.30
30150;DHT22;16962;48.646;9.026;2024-01-10T06:54:10;-7.60;99.90
30150;DHT22;16962;48.646;9.026;2024-01-10T06:57:04;-7.50;99.90
30150;DHT22;16962;48.646;9.026;2024-01-10T06:59:54;-7.40;99.90
30150;DHT22;16962;48.646;9.026;2024-01-10T07:02:47;-7.40;99.90
30150;DHT22;16962;48.646;9.026;2024-01-10T07:05:36;-7.40;99.90
30150;DHT22;16962;48.646;9.026;2024-01-10T07:08:25;-7.50;28.10
30150;DHT22;16962;48.646;9.026;2024-01-10T07:11:15;-7.60;99.90
30150;DHT22;16962;48.646;9.026;2024-01-10T07:14:07;-7.60;56.00
30150;DHT22;16962;48.646;9.026;2024-01-10T07:16:55;-7.70;99.90
30150;DHT22;16962;48.646;9.026;2024-01-10T07:19:44;-7.70;99.90
30150;DHT22;16962;48.646;9.026;2024-01-10T07:22:33;-7.70;99.90
30150;DHT22;16962;48.646;9.026;2024-01-10T07:25:20;-7.70;99.90
30150;DHT22;16962;48.646;9.026;2024-01-10T07:28:13;-7.70;99.90
30150;DHT22;16962;48.646;9.026;2024-01-10T07:31:00;-7.70;99.90
30150;DHT22;16962;48.646;9.026;2024-01-10T07:33:50;-7.60;99.90
30150;DHT22;16962;48.646;9.026;2024-01-10T07:36:42;-7.30;1.00
30150;DHT22;16962;48.646;9.026;2024-01-10T07:39:30;-7.20;1.00
30150;DHT22;16962;48.646;9.026;2024-01-10T07:42:17;-7.20;1.00
30150;DHT22;16962;48.646;9.026;2024-01-10T07:45:06;-7.10;1.00
30150;DHT22;16962;48.646;9.026;2024-01-10T07:47:54;-7.00;1.00
30150;DHT22;16962;48.646;9.026;2024-01-10T07:50:42;-6.90;99.90
30150;DHT22;16962;48.646;9.026;2024-01-10T07:53:30;-6.90;99.90
30150;DHT22;16962;48.646;9.026;2024-01-10T07:56:17;-6.80;99.90
30150;DHT22;16962;48.646;9.026;2024-01-10T07:59:07;-6.70;99.90
30150;DHT22;16962;48.646;9.026;2024-01-10T08:02:00;-6.60;99.90
30150;DHT22;16962;48.646;9.026;2024-01-10T08:04:48;-6.50;99.90
30150;DHT22;16962;48.646;9.026;2024-01-10T08:07:36;-6.30;6.10
30150;DHT22;16962;48.646;9.026;2024-01-10T08:10:29;-6.20;1.00
30150;DHT22;16962;48.646;9.026;2024-01-10T08:13:16;-5.90;99.90
30150;DHT22;16962;48.646;9.026;2024-01-10T08:16:05;-5.80;99.90
30150;DHT22;16962;48.646;9.026;2024-01-10T08:18:56;-5.60;99.90
30150;DHT22;16962;48.646;9.026;2024-01-10T08:21:44;-5.40;99.90
30150;DHT22;16962;48.646;9.026;2024-01-10T08:24:35;-5.30;29.00
30150;DHT22;16962;48.646;9.026;2024-01-10T08:27:24;-5.20;1.00
30150;DHT22;16962;48.646;9.026;2024-01-10T08:30:12;-5.10;99.90
30150;DHT22;16962;48.646;9.026;2024-01-10T08:33:00;-5.00;39.90
30150;DHT22;16962;48.646;9.026;2024-01-10T08:35:47;-4.90;99.90
30150;DHT22;16962;48.646;9.026;2024-01-10T08:38:36;-4.70;99.90
30150;DHT22;16962;48.646;9.026;2024-01-10T08:41:32;-4.50;5.80
30150;DHT22;16962;48.646;9.026;2024-01-10T08:44:20;-4.30;1.00
30150;DHT22;16962;48.646;9.026;2024-01-10T08:47:07;-4.00;99.90
30150;DHT22;16962;48.646;9.026;2024-01-10T08:49:55;-3.80;99.90
30150;DHT22;16962;48.646;9.026;2024-01-10T08:52:46;-3.70;27.00
30150;DHT22;16962;48.646;9.026;2024-01-10T08:55:33;-3.70;1.00
30150;DHT22;16962;48.646;9.026;2024-01-10T08:58:24;-3.50;99.90
30150;DHT22;16962;48.646;9.026;2024-01-10T09:01:11;-3.30;99.90
30150;DHT22;16962;48.646;9.026;2024-01-10T09:04:00;-3.20;99.90
30150;DHT22;16962;48.646;9.026;2024-01-10T09:06:49;-3.20;99.90
30150;DHT22;16962;48.646;9.026;2024-01-10T09:09:41;-3.20;99.90
30150;DHT22;16962;48.646;9.026;2024-01-10T09:12:29;-3.30;99.90
30150;DHT22;16962;48.646;9.026;2024-01-10T09:15:20;-3.40;99.90
30150;DHT22;16962;48.646;9.026;2024-01-10T09:18:09;-3.40;99.90
30150;DHT22;16962;48.646;9.026;2024-01-10T09:21:04;-3.40;99.90
30150;DHT22;16962;48.646;9.026;2024-01-10T09:23:51;-3.20;99.90
30150;DHT22;16962;48.646;9.026;2024-01-10T09:26:38;-3.00;99.90
30150;DHT22;16962;48.646;9.026;2024-01-10T09:29:34;-2.80;88.30
30150;DHT22;16962;48.646;9.026;2024-01-10T09:32:26;-2.60;64.10
30150;DHT22;16962;48.646;9.026;2024-01-10T09:35:18;-2.20;32.90
30150;DHT22;16962;48.646;9.026;2024-01-10T09:38:05;-2.00;1.00
30150;DHT22;16962;48.646;9.026;2024-01-10T09:40:59;-1.90;1.00
30150;DHT22;16962;48.646;9.026;2024-01-10T09:43:53;-1.70;1.00
30150;DHT22;16962;48.646;9.026;2024-01-10T09:46:52;-1.50;1.00
30150;DHT22;16962;48.646;9.026;2024-01-10T09:49:41;-1.00;1.00
30150;DHT22;16962;48.646;9.026;2024-01-10T09:52:39;-0.20;99.90
30150;DHT22;16962;48.646;9.026;2024-01-10T09:55:34;0.70;99.90
30150;DHT22;16962;48.646;9.026;2024-01-10T09:58:23;1.40;99.90
30150;DHT22;16962;48.646;9.026;2024-01-10T10:01:12;1.70;99.90
30150;DHT22;16962;48.646;9.026;2024-01-10T10:04:01;1.30;99.90
30150;DHT22;16962;48.646;9.026;2024-01-10T10:07:01;1.90;99.90
30150;DHT22;16962;48.646;9.026;2024-01-10T10:09:50;2.50;99.90
30150;DHT22;16962;48.646;9.026;2024-01-10T10:12:52;3.40;99.90
30150;DHT22;16962;48.646;9.026;2024-01-10T10:15:40;3.80;99.90
30150;DHT22;16962;48.646;9.026;2024-01-10T10:18:32;3.30;99.90
30150;DHT22;16962;48.646;9.026;2024-01-10T10:21:20;3.00;99.90
30150;DHT22;16962;48.646;9.026;2024-01-10T10:24:14;3.80;99.90
30150;DHT22;16962;48.646;9.026;2024-01-10T10:27:08;4.10;99.90
30150;DHT22;16962;48.646;9.026;2024-01-10T10:30:01;4.30;99.90
30150;DHT22;16962;48.646;9.026;2024-01-10T10:32:59;3.80;99.90
30150;DHT22;16962;48.646;9.026;2024-01-10T10:36:00;4.20;99.90
30150;DHT22;16962;48.646;9.026;2024-01-10T10:39:00;5.10;99.90
30150;DHT22;16962;48.646;9.026;2024-01-10T10:42:11;5.10;99.30
30150;DHT22;16962;48.646;9.026;2024-01-10T10:45:14;5.10;94.90
30150;DHT22;16962;48.646;9.026;2024-01-10T10:48:08;4.60;75.70
30150;DHT22;16962;48.646;9.026;2024-01-10T10:51:35;4.00;80.00
30150;DHT22;16962;48.646;9.026;2024-01-10T10:54:31;4.70;84.20
30150;DHT22;16962;48.646;9.026;2024-01-10T10:57:19;5.50;87.00
30150;DHT22;16962;48.646;9.026;2024-01-10T11:00:09;5.70;80.50
30150;DHT22;16962;48.646;9.026;2024-01-10T11:03:04;6.00;84.30
30150;DHT22;16962;48.646;9.026;2024-01-10T11:05:52;6.50;83.70
30150;DHT22;16962;48.646;9.026;2024-01-10T11:08:54;6.40;85.70
30150;DHT22;16962;48.646;9.026;2024-01-10T11:12:05;7.40;85.90
30150;DHT22;16962;48.646;9.026;2024-01-10T11:15:20;7.70;57.10
30150;DHT22;16962;48.646;9.026;2024-01-10T11:25:26;9.00;50.90
30150;DHT22;16962;48.646;9.026;2024-01-10T11:28:17;9.20;81.80
30150;DHT22;16962;48.646;9.026;2024-01-10T11:31:06;8.80;57.00
30150;DHT22;16962;48.646;9.026;2024-01-10T11:34:01;7.50;52.70
30150;DHT22;16962;48.646;9.026;2024-01-10T11:37:09;7.70;51.50
30150;DHT22;16962;48.646;9.026;2024-01-10T11:39:56;8.00;53.20
30150;DHT22;16962;48.646;9.026;2024-01-10T11:42:45;7.80;49.50
30150;DHT22;16962;48.646;9.026;2024-01-10T11:48:28;7.50;45.60
30150;DHT22;16962;48.646;9.026;2024-01-10T11:51:16;7.50;43.20
30150;DHT22;16962;48.646;9.026;2024-01-10T11:54:05;8.10;61.20
30150;DHT22;16962;48.646;9.026;2024-01-10T11:56:54;7.90;50.30
30150;DHT22;16962;48.646;9.026;2024-01-10T11:59:43;7.50;48.90
30150;DHT22;16962;48.646;9.026;2024-01-10T12:03:09;8.00;52.10
30150;DHT22;16962;48.646;9.026;2024-01-10T12:06:07;9.30;42.10
30150;DHT22;16962;48.646;9.026;2024-01-10T12:08:58;8.60;33.90
30150;DHT22;16962;48.646;9.026;2024-01-10T12:11:48;7.30;27.60
30150;DHT22;16962;48.646;9.026;2024-01-10T12:14:37;7.60;25.40
30150;DHT22;16962;48.646;9.026;2024-01-10T12:17:27;6.80;25.00
30150;DHT22;16962;48.646;9.026;2024-01-10T12:20:19;7.00;29.20
30150;DHT22;16962;48.646;9.026;2024-01-10T12:23:07;7.50;23.10
30150;DHT22;16962;48.646;9.026;2024-01-10T12:25:56;7.70;24.70
30150;DHT22;16962;48.646;9.026;2024-01-10T12:28:54;7.40;21.70
30150;DHT22;16962;48.646;9.026;2024-01-10T12:31:44;8.20;21.60
30150;DHT22;16962;48.646;9.026;2024-01-10T12:34:38;7.80;20.70
30150;DHT22;16962;48.646;9.026;2024-01-10T12:37:25;7.90;25.10
30150;DHT22;16962;48.646;9.026;2024-01-10T12:40:13;8.50;21.80
30150;DHT22;16962;48.646;9.026;2024-01-10T12:43:04;8.20;21.90
30150;DHT22;16962;48.646;9.026;2024-01-10T12:46:09;8.00;25.00
30150;DHT22;16962;48.646;9.026;2024-01-10T12:49:07;8.30;23.20
30150;DHT22;16962;48.646;9.026;2024-01-10T12:51:55;8.90;24.40
30150;DHT22;16962;48.646;9.026;2024-01-10T12:54:43;9.30;23.00
30150;DHT22;16962;48.646;9.026;2024-01-10T12:57:32;9.90;23.60
30150;DHT22;16962;48.646;9.026;2024-01-10T13:00:23;10.40;23.30
30150;DHT22;16962;48.646;9.026;2024-01-10T13:03:23;11.10;22.40
30150;DHT22;16962;48.646;9.026;2024-01-10T13:06:11;10.90;21.40
30150;DHT22;16962;48.646;9.026;2024-01-10T13:08:59;11.00;25.30
30150;DHT22;16962;48.646;9.026;2024-01-10T13:11:50;11.00;24.30
30150;DHT22;16962;48.646;9.026;2024-01-10T13:14:48;10.80;21.40
30150;DHT22;16962;48.646;9.026;2024-01-10T13:17:39;11.30;21.60
30150;DHT22;16962;48.646;9.026;2024-01-10T13:20:27;10.90;19.70
30150;DHT22;16962;48.646;9.026;2024-01-10T13:23:18;10.60;24.00
30150;DHT22;16962;48.646;9.026;2024-01-10T13:26:06;10.10;22.30
30150;DHT22;16962;48.646;9.026;2024-01-10T13:28:54;10.10;20.30
30150;DHT22;16962;48.646;9.026;2024-01-10T13:31:42;9.30;19.80
30150;DHT22;16962;48.646;9.026;2024-01-10T13:34:32;9.70;17.20
30150;DHT22;16962;48.646;9.026;2024-01-10T13:37:24;9.50;18.10
30150;DHT22;16962;48.646;9.026;2024-01-10T13:40:17;9.60;15.30
30150;DHT22;16962;48.646;9.026;2024-01-10T13:43:10;9.20;15.80
30150;DHT22;16962;48.646;9.026;2024-01-10T13:46:03;9.50;14.80
30150;DHT22;16962;48.646;9.026;2024-01-10T13:48:55;9.60;15.60
30150;DHT22;16962;48.646;9.026;2024-01-10T13:51:44;9.70;12.60
30150;DHT22;16962;48.646;9.026;2024-01-10T13:54:34;9.90;9.00
30150;DHT22;16962;48.646;9.026;2024-01-10T13:57:23;10.00;10.60
30150;DHT22;16962;48.646;9.026;2024-01-10T14:00:11;9.80;11.00
30150;DHT22;16962;48.646;9.026;2024-01-10T14:03:04;8.90;9.00
30150;DHT22;16962;48.646;9.026;2024-01-10T14:05:52;8.20;9.40
30150;DHT22;16962;48.646;9.026;2024-01-10T14:08:41;8.10;8.50
30150;DHT22;16962;48.646;9.026;2024-01-10T14:11:33;7.60;10.80
30150;DHT22;16962;48.646;9.026;2024-01-10T14:14:22;7.70;9.70
30150;DHT22;16962;48.646;9.026;2024-01-10T14:17:12;7.50;10.70
30150;DHT22;16962;48.646;9.026;2024-01-10T14:20:00;7.40;11.30
30150;DHT22;16962;48.646;9.026;2024-01-10T14:22:49;7.00;10.00
30150;DHT22;16962;48.646;9.026;2024-01-10T14:25:37;6.90;12.80
30150;DHT22;16962;48.646;9.026;2024-01-10T14:28:25;7.10;14.90
30150;DHT22;16962;48.646;9.026;2024-01-10T14:31:12;7.40;13.40
30150;DHT22;16962;48.646;9.026;2024-01-10T14:34:15;6.90;12.30
30150;DHT22;16962;48.646;9.026;2024-01-10T14:37:05;6.50;11.70
30150;DHT22;16962;48.646;9.026;2024-01-10T14:39:52;6.70;13.00
30150;DHT22;16962;48.646;9.026;2024-01-10T14:42:40;7.10;14.70
30150;DHT22;16962;48.646;9.026;2024-01-10T14:45:28;7.20;10.20
30150;DHT22;16962;48.646;9.026;2024-01-10T14:48:18;6.50;10.10
30150;DHT22;16962;48.646;9.026;2024-01-10T14:51:07;6.00;12.30
30150;DHT22;16962;48.646;9.026;2024-01-10T14:53:56;5.50;16.30
30150;DHT22;16962;48.646;9.026;2024-01-10T14:56:51;5.40;14.70
30150;DHT22;16962;48.646;9.026;2024-01-10T14:59:42;5.30;11.90
30150;DHT22;16962;48.646;9.026;2024-01-10T15:02:33;5.00;14.90
30150;DHT22;16962;48.646;9.026;2024-01-10T15:05:25;5.10;15.90
30150;DHT22;16962;48.646;9.026;2024-01-10T15:08:18;5.20;17.90
30150;DHT22;16962;48.646;9.026;2024-01-10T15:11:05;5.00;18.60
30150;DHT22;16962;48.646;9.026;2024-01-10T15:13:53;4.50;16.30
30150;DHT22;16962;48.646;9.026;2024-01-10T15:16:47;3.80;20.60
30150;DHT22;16962;48.646;9.026;2024-01-10T15:19:35;3.30;22.00
30150;DHT22;16962;48.646;9.026;2024-01-10T15:22:24;2.80;23.70
30150;DHT22;16962;48.646;9.026;2024-01-10T15:25:13;2.30;26.10
30150;DHT22;16962;48.646;9.026;2024-01-10T15:28:02;1.80;34.50
30150;DHT22;16962;48.646;9.026;2024-01-10T15:30:50;1.40;41.80
30150;DHT22;16962;48.646;9.026;2024-01-10T15:33:40;0.90;53.40
30150;DHT22;16962;48.646;9.026;2024-01-10T15:36:29;0.50;73.10
30150;DHT22;16962;48.646;9.026;2024-01-10T15:39:20;0.10;95.50
30150;DHT22;16962;48.646;9.026;2024-01-10T15:42:08;-0.20;99.90
30150;DHT22;16962;48.646;9.026;2024-01-10T15:44:58;-0.50;99.90
30150;DHT22;16962;48.646;9.026;2024-01-10T15:47:55;-0.70;99.90
30150;DHT22;16962;48.646;9.026;2024-01-10T15:50:45;-1.00;99.90
30150;DHT22;16962;48.646;9.026;2024-01-10T15:53:32;-1.10;99.90
30150;DHT22;16962;48.646;9.026;2024-01-10T15:56:22;-1.30;99.90
30150;DHT22;16962;48.646;9.026;2024-01-10T15:59:10;-1.40;99.90
30150;DHT22;16962;48.646;9.026;2024-01-10T16:02:01;-1.50;99.90
30150;DHT22;16962;48.646;9.026;2024-01-10T16:04:49;-1.60;99.90
30150;DHT22;16962;48.646;9.026;2024-01-10T16:07:37;-1.70;99.90
30150;DHT22;16962;48.646;9.026;2024-01-10T16:10:27;-1.80;1.00
30150;DHT22;16962;48.646;9.026;2024-01-10T16:13:16;-1.90;1.00
30150;DHT22;16962;48.646;9.026;2024-01-10T16:16:05;-2.10;1.00
30150;DHT22;16962;48.646;9.026;2024-01-10T16:18:56;-2.20;1.00
30150;DHT22;16962;48.646;9.026;2024-01-10T16:21:46;-2.30;1.00
30150;DHT22;16962;48.646;9.026;2024-01-10T16:24:36;-2.40;99.90
30150;DHT22;16962;48.646;9.026;2024-01-10T16:27:27;-2.40;99.90
30150;DHT22;16962;48.646;9.026;2024-01-10T16:30:14;-2.60;99.90
30150;DHT22;16962;48.646;9.026;2024-01-10T16:33:02;-2.70;99.90
30150;DHT22;16962;48.646;9.026;2024-01-10T16:35:52;-2.70;28.70
30150;DHT22;16962;48.646;9.026;2024-01-10T16:38:40;-2.60;99.90
30150;DHT22;16962;48.646;9.026;2024-01-10T16:41:29;-2.70;1.00
30150;DHT22;16962;48.646;9.026;2024-01-10T16:44:20;-2.70;99.90
30150;DHT22;16962;48.646;9.026;2024-01-10T16:47:08;-2.90;99.90
30150;DHT22;16962;48.646;9.026;2024-01-10T16:49:59;-2.90;99.90
30150;DHT22;16962;48.646;9.026;2024-01-10T16:52:47;-2.90;1.00
30150;DHT22;16962;48.646;9.026;2024-01-10T16:55:35;-3.00;1.00
30150;DHT22;16962;48.646;9.026;2024-01-10T16:58:24;-3.10;2.50
30150;DHT22;16962;48.646;9.026;2024-01-10T17:01:13;-3.10;99.90
30150;DHT22;16962;48.646;9.026;2024-01-10T17:04:03;-3.20;99.90
30150;DHT22;16962;48.646;9.026;2024-01-10T17:06:53;-3.30;99.90
30150;DHT22;16962;48.646;9.026;2024-01-10T17:09:42;-3.30;99.90
30150;DHT22;16962;48.646;9.026;2024-01-10T17:12:33;-3.40;1.00
30150;DHT22;16962;48.646;9.026;2024-01-10T17:15:23;-3.50;99.90
30150;DHT22;16962;48.646;9.026;2024-01-10T17:18:13;-3.40;99.90
30150;DHT22;16962;48.646;9.026;2024-01-10T17:21:05;-3.40;46.80
30150;DHT22;16962;48.646;9.026;2024-01-10T17:23:56;-3.60;1.00
30150;DHT22;16962;48.646;9.026;2024-01-10T17:26:45;-3.60;99.90
30150;DHT22;16962;48.646;9.026;2024-01-10T17:29:34;-3.70;99.90
30150;DHT22;16962;48.646;9.026;2024-01-10T17:32:24;-3.70;1.00
30150;DHT22;16962;48.646;9.026;2024-01-10T17:35:13;-3.80;99.90
30150;DHT22;16962;48.646;9.026;2024-01-10T17:38:04;-3.70;1.00
30150;DHT22;16962;48.646;9.026;2024-01-10T17:40:54;-3.60;1.00
30150;DHT22;16962;48.646;9.026;2024-01-10T17:43:43;-3.50;1.00
30150;DHT22;16962;48.646;9.026;2024-01-10T17:46:33;-3.60;99.90
30150;DHT22;16962;48.646;9.026;2024-01-10T17:49:21;-3.60;1.00
30150;DHT22;16962;48.646;9.026;2024-01-10T17:52:09;-3.70;1.00
30150;DHT22;16962;48.646;9.026;2024-01-10T17:54:58;-3.70;1.00
30150;DHT22;16962;48.646;9.026;2024-01-10T17:57:45;-3.70;24.20
30150;DHT22;16962;48.646;9.026;2024-01-10T18:00:34;-3.70;99.90
30150;DHT22;16962;48.646;9.026;2024-01-10T18:03:25;-3.70;99.90
30150;DHT22;16962;48.646;9.026;2024-01-10T18:06:13;-3.80;99.90
30150;DHT22;16962;48.646;9.026;2024-01-10T18:09:02;-3.90;99.90
30150;DHT22;16962;48.646;9.026;2024-01-10T18:11:50;-4.00;99.90